createdAt,value
2024-03-22T00:00:32.404Z,89026.00
2024-03-22T00:01:32.393Z,89027.00
2024-03-22T00:02:32.419Z,89027.00
2024-03-22T00:03:32.390Z,89027.00
2024-03-22T00:04:32.401Z,89025.00
2024-03-22T00:05:32.393Z,89027.00
2024-03-22T00:06:32.412Z,89024.00
2024-03-22T00:07:32.431Z,89024.00
2024-03-22T00:08:32.410Z,89024.00
2024-03-22T00:09:32.410Z,89025.00
2024-03-22T00:10:32.419Z,89024.00
2024-03-22T00:11:32.440Z,89025.00
2024-03-22T00:12:32.413Z,89026.00
2024-03-22T00:13:32.407Z,89025.00
2024-03-22T00:14:34.495Z,89028.00
2024-03-22T00:15:32.408Z,89028.00
2024-03-22T00:16:32.428Z,89026.00
2024-03-22T00:17:32.465Z,89028.00
2024-03-22T00:18:32.459Z,89031.00
2024-03-22T00:19:32.414Z,89028.00
2024-03-22T00:20:35.071Z,89024.00
2024-03-22T00:21:32.440Z,89029.00
2024-03-22T00:22:32.431Z,89031.00
2024-03-22T00:23:32.444Z,89030.00
2024-03-22T00:24:32.434Z,89027.00
2024-03-22T00:25:32.448Z,89030.00
2024-03-22T00:26:32.452Z,89031.00
2024-03-22T00:27:32.444Z,89031.00
2024-03-22T00:28:32.440Z,89030.00
2024-03-22T00:29:32.439Z,89030.00
2024-03-22T00:30:32.442Z,89030.00
2024-03-22T00:31:32.468Z,89030.00
2024-03-22T00:32:32.524Z,89029.00
2024-03-22T00:33:32.450Z,89029.00
2024-03-22T00:34:32.456Z,89031.00
2024-03-22T00:35:32.449Z,89032.00
2024-03-22T00:36:32.460Z,89032.00
2024-03-22T00:37:32.455Z,89030.00
2024-03-22T00:38:32.502Z,89028.00
2024-03-22T00:39:32.474Z,89032.00
2024-03-22T00:40:32.477Z,89033.00
2024-03-22T00:41:32.478Z,89029.00
2024-03-22T00:42:32.485Z,89028.00
2024-03-22T00:43:32.470Z,89027.00
2024-03-22T00:44:32.514Z,89023.00
2024-03-22T00:45:32.498Z,89023.00
2024-03-22T00:46:32.485Z,89026.00
2024-03-22T00:47:32.479Z,89027.00
2024-03-22T00:48:32.477Z,89023.00
2024-03-22T00:49:32.469Z,89024.00
2024-03-22T00:50:32.496Z,89024.00
2024-03-22T00:51:32.479Z,89024.00
2024-03-22T00:52:32.492Z,89021.00
2024-03-22T00:53:32.509Z,89021.00
2024-03-22T00:54:32.509Z,89020.00
2024-03-22T00:55:32.494Z,89018.00
2024-03-22T00:56:32.532Z,89021.00
2024-03-22T00:57:32.492Z,89022.00
2024-03-22T00:58:32.500Z,89019.00
2024-03-22T00:59:32.512Z,89019.00
2024-03-22T01:00:32.500Z,89020.00
2024-03-22T01:01:32.524Z,89018.00
2024-03-22T01:02:32.514Z,89016.00
2024-03-22T01:03:32.502Z,89015.00
2024-03-22T01:04:32.524Z,89013.00
2024-03-22T01:05:32.541Z,89014.00
2024-03-22T01:06:32.526Z,89012.00
2024-03-22T01:07:32.518Z,89010.00
2024-03-22T01:08:32.515Z,89009.00
2024-03-22T01:09:32.514Z,89013.00
2024-03-22T01:10:32.522Z,89010.00
2024-03-22T01:11:32.571Z,89011.00
2024-03-22T01:12:32.533Z,89009.00
2024-03-22T01:13:32.532Z,89006.00
2024-03-22T01:14:32.542Z,89001.00
2024-03-22T01:15:32.520Z,89001.00
2024-03-22T01:16:32.533Z,89002.00
2024-03-22T01:17:32.536Z,88998.00
2024-03-22T01:18:32.529Z,88997.00
2024-03-22T01:19:32.524Z,88996.00
2024-03-22T01:20:32.523Z,88995.00
2024-03-22T01:21:32.527Z,88997.00
2024-03-22T01:22:32.531Z,88994.00
2024-03-22T01:23:32.522Z,88993.00
2024-03-22T01:24:32.545Z,88994.00
2024-03-22T01:25:32.563Z,88996.00
2024-03-22T01:26:32.563Z,88993.00
2024-03-22T01:27:32.526Z,88993.00
2024-03-22T01:28:32.530Z,88990.00
2024-03-22T01:29:32.554Z,88989.00
2024-03-22T01:30:32.544Z,88987.00
2024-03-22T01:31:32.547Z,88988.00
2024-03-22T01:32:32.588Z,88990.00
2024-03-22T01:33:32.536Z,88990.00
2024-03-22T01:34:32.548Z,88988.00
2024-03-22T01:35:32.550Z,88983.00
2024-03-22T01:36:32.553Z,88985.00
2024-03-22T01:37:32.543Z,88985.00
2024-03-22T01:38:32.564Z,88985.00
2024-03-22T01:39:32.571Z,88984.00
2024-03-22T01:40:32.557Z,88981.00
2024-03-22T01:41:32.628Z,88982.00
2024-03-22T01:42:32.570Z,88986.00
2024-03-22T01:43:32.548Z,88985.00
2024-03-22T01:44:32.602Z,88980.00
2024-03-22T01:45:32.575Z,88980.00
2024-03-22T01:46:32.591Z,88983.00
2024-03-22T01:47:32.561Z,88983.00
2024-03-22T01:48:32.590Z,88984.00
2024-03-22T01:49:32.569Z,88982.00
2024-03-22T01:50:32.572Z,88980.00
2024-03-22T01:51:32.584Z,88977.00
2024-03-22T01:52:32.584Z,88977.00
2024-03-22T01:53:32.573Z,88975.00
2024-03-22T01:54:32.584Z,88974.00
2024-03-22T01:55:32.578Z,88973.00
2024-03-22T01:56:32.579Z,88974.00
2024-03-22T01:57:32.590Z,88974.00
2024-03-22T01:58:32.601Z,88974.00
2024-03-22T01:59:32.595Z,88976.00
2024-03-22T02:00:32.624Z,88973.00
2024-03-22T02:01:32.615Z,88971.00
2024-03-22T02:02:32.591Z,88970.00
2024-03-22T02:03:32.613Z,88970.00
2024-03-22T02:04:32.642Z,88969.00
2024-03-22T02:05:32.613Z,88969.00
2024-03-22T02:06:32.634Z,88968.00
2024-03-22T02:07:32.630Z,88970.00
2024-03-22T02:08:32.608Z,88966.00
2024-03-22T02:09:32.635Z,88968.00
2024-03-22T02:10:32.622Z,88966.00
2024-03-22T02:11:32.629Z,88964.00
2024-03-22T02:12:32.632Z,88966.00
2024-03-22T02:13:32.622Z,88965.00
2024-03-22T02:14:32.656Z,88966.00
2024-03-22T02:15:32.642Z,88962.00
2024-03-22T02:16:32.649Z,88962.00
2024-03-22T02:17:32.675Z,88960.00
2024-03-22T02:18:32.649Z,88959.00
2024-03-22T02:19:32.629Z,88960.00
2024-03-22T02:20:32.660Z,88960.00
2024-03-22T02:21:32.653Z,88963.00
2024-03-22T02:22:32.644Z,88962.00
2024-03-22T02:23:32.664Z,88965.00
2024-03-22T02:24:32.640Z,88962.00
2024-03-22T02:25:32.656Z,88960.00
2024-03-22T02:26:32.642Z,88958.00
2024-03-22T02:27:32.694Z,88958.00
2024-03-22T02:28:32.671Z,88957.00
2024-03-22T02:29:32.722Z,88960.00
2024-03-22T02:30:32.657Z,88958.00
2024-03-22T02:31:32.656Z,88955.00
2024-03-22T02:32:32.678Z,88957.00
2024-03-22T02:33:32.691Z,88957.00
2024-03-22T02:34:35.833Z,88954.00
2024-03-22T02:35:32.674Z,88952.00
2024-03-22T02:36:32.662Z,88952.00
2024-03-22T02:37:32.775Z,88951.00
2024-03-22T02:38:32.650Z,88949.00
2024-03-22T02:39:32.649Z,88950.00
2024-03-22T02:40:32.667Z,88950.00
2024-03-22T02:41:32.658Z,88946.00
2024-03-22T02:42:32.667Z,88947.00
2024-03-22T02:43:32.701Z,88945.00
2024-03-22T02:44:32.650Z,88945.00
2024-03-22T02:45:32.667Z,88947.00
2024-03-22T02:46:32.683Z,88943.00
2024-03-22T02:47:32.677Z,88943.00
2024-03-22T02:48:32.671Z,88943.00
2024-03-22T02:49:32.676Z,88941.00
2024-03-22T02:50:32.676Z,88942.00
2024-03-22T02:51:32.688Z,88939.00
2024-03-22T02:52:32.692Z,88935.00
2024-03-22T02:53:32.686Z,88937.00
2024-03-22T02:54:32.676Z,88934.00
2024-03-22T02:55:32.687Z,88931.00
2024-03-22T02:56:32.695Z,88932.00
2024-03-22T02:57:32.686Z,88931.00
2024-03-22T02:58:32.710Z,88932.00
2024-03-22T02:59:32.694Z,88930.00
2024-03-22T03:00:32.689Z,88928.00
2024-03-22T03:01:32.726Z,88927.00
2024-03-22T03:02:32.683Z,88929.00
2024-03-22T03:03:32.698Z,88930.00
2024-03-22T03:04:32.699Z,88928.00
2024-03-22T03:05:32.707Z,88925.00
2024-03-22T03:06:32.700Z,88928.00
2024-03-22T03:07:32.703Z,88928.00
2024-03-22T03:08:32.737Z,88929.00
2024-03-22T03:09:32.716Z,88927.00
2024-03-22T03:10:32.709Z,88928.00
2024-03-22T03:11:32.730Z,88928.00
2024-03-22T03:12:32.706Z,88928.00
2024-03-22T03:13:32.724Z,88929.00
2024-03-22T03:14:32.716Z,88929.00
2024-03-22T03:15:32.713Z,88929.00
2024-03-22T03:16:32.722Z,88927.00
2024-03-22T03:17:32.716Z,88929.00
2024-03-22T03:18:32.731Z,88930.00
2024-03-22T03:19:32.722Z,88929.00
2024-03-22T03:20:32.718Z,88928.00
2024-03-22T03:21:32.732Z,88928.00
2024-03-22T03:22:32.713Z,88926.00
2024-03-22T03:23:32.722Z,88925.00
2024-03-22T03:24:32.731Z,88923.00
2024-03-22T03:25:32.726Z,88923.00
2024-03-22T03:26:32.753Z,88924.00
2024-03-22T03:27:32.797Z,88923.00
2024-03-22T03:28:32.821Z,88921.00
2024-03-22T03:29:32.871Z,88921.00
2024-03-22T03:30:32.903Z,88920.00
2024-03-22T03:31:32.943Z,88918.00
2024-03-22T03:32:32.980Z,88917.00
2024-03-22T03:33:33.028Z,88916.00
2024-03-22T03:34:33.074Z,88916.00
2024-03-22T03:35:33.117Z,88919.00
2024-03-22T03:36:33.160Z,88917.00
2024-03-22T03:37:33.202Z,88915.00
2024-03-22T03:38:33.268Z,88914.00
2024-03-22T03:39:33.320Z,88916.00
2024-03-22T03:40:33.377Z,88916.00
2024-03-22T03:41:33.425Z,88919.00
2024-03-22T03:42:33.471Z,88918.00
2024-03-22T03:43:33.532Z,88920.00
2024-03-22T03:44:33.583Z,88920.00
2024-03-22T03:45:33.650Z,88918.00
2024-03-22T03:46:33.741Z,88920.00
2024-03-22T03:47:33.791Z,88917.00
2024-03-22T03:48:33.838Z,88918.00
2024-03-22T03:49:33.922Z,88921.00
2024-03-22T03:50:33.992Z,88921.00
2024-03-22T03:51:34.085Z,88920.00
2024-03-22T03:52:34.145Z,88921.00
2024-03-22T03:53:34.213Z,88922.00
2024-03-22T03:54:34.293Z,88926.00
2024-03-22T03:55:34.355Z,88926.00
2024-03-22T03:56:34.416Z,88928.00
2024-03-22T03:57:34.478Z,88928.00
2024-03-22T03:58:34.554Z,88931.00
2024-03-22T03:59:34.627Z,88933.00
2024-03-22T04:00:34.702Z,88930.00
2024-03-22T04:01:34.767Z,88933.00
2024-03-22T04:02:34.816Z,88930.00
2024-03-22T04:03:34.842Z,88928.00
2024-03-22T04:04:34.878Z,88926.00
2024-03-22T04:05:34.946Z,88924.00
2024-03-22T04:06:35.002Z,88923.00
2024-03-22T04:07:35.063Z,88919.00
2024-03-22T04:08:35.102Z,88919.00
2024-03-22T04:09:35.195Z,88922.00
2024-03-22T04:10:35.219Z,88922.00
2024-03-22T04:11:35.273Z,88919.00
2024-03-22T04:12:35.308Z,88919.00
2024-03-22T04:13:35.352Z,88918.00
2024-03-22T04:14:35.399Z,88921.00
2024-03-22T04:15:35.430Z,88923.00
2024-03-22T04:16:35.474Z,88922.00
2024-03-22T04:17:35.512Z,88924.00
2024-03-22T04:18:35.539Z,88925.00
2024-03-22T04:19:35.536Z,88926.00
2024-03-22T04:20:35.544Z,88928.00
2024-03-22T04:21:35.561Z,88928.00
2024-03-22T04:22:35.557Z,88926.00
2024-03-22T04:23:35.558Z,88927.00
2024-03-22T04:24:35.587Z,88927.00
2024-03-22T04:25:35.574Z,88925.00
2024-03-22T04:26:35.586Z,88925.00
2024-03-22T04:27:35.605Z,88923.00
2024-03-22T04:28:35.638Z,88923.00
2024-03-22T04:29:35.642Z,88922.00
2024-03-22T04:30:35.684Z,88925.00
2024-03-22T04:31:35.715Z,88922.00
2024-03-22T04:32:35.737Z,88921.00
2024-03-22T04:33:35.805Z,88923.00
2024-03-22T04:34:35.851Z,88924.00
2024-03-22T04:35:35.897Z,88924.00
2024-03-22T04:36:35.955Z,88922.00
2024-03-22T04:37:35.990Z,88920.00
2024-03-22T04:38:36.053Z,88923.00
2024-03-22T04:39:43.331Z,88925.00
2024-03-22T04:40:43.330Z,88925.00
2024-03-22T04:41:43.341Z,88926.00
2024-03-22T04:42:43.341Z,88927.00
2024-03-22T04:43:43.338Z,88927.00
2024-03-22T04:44:43.350Z,88926.00
2024-03-22T04:45:43.354Z,88929.00
2024-03-22T04:46:43.503Z,88933.00
2024-03-22T04:47:43.375Z,88932.00
2024-03-22T04:48:43.378Z,88933.00
2024-03-22T04:49:43.333Z,88934.00
2024-03-22T04:50:43.370Z,88936.00
2024-03-22T04:51:43.348Z,88933.00
2024-03-22T04:52:43.338Z,88933.00
2024-03-22T04:53:45.989Z,88936.00
2024-03-22T04:54:43.368Z,88934.00
2024-03-22T04:55:43.364Z,88938.00
2024-03-22T04:56:43.409Z,88937.00
2024-03-22T04:57:43.355Z,88936.00
2024-03-22T04:58:43.346Z,88938.00
2024-03-22T04:59:43.361Z,88938.00
2024-03-22T05:00:43.354Z,88941.00
2024-03-22T05:01:43.355Z,88940.00
2024-03-22T05:02:43.372Z,88943.00
2024-03-22T05:03:43.348Z,88946.00
2024-03-22T05:04:43.359Z,88945.00
2024-03-22T05:05:43.376Z,88944.00
2024-03-22T05:06:43.361Z,88945.00
2024-03-22T05:07:43.354Z,88943.00
2024-03-22T05:08:43.371Z,88943.00
2024-03-22T05:09:43.353Z,88945.00
2024-03-22T05:10:43.376Z,88944.00
2024-03-22T05:11:43.391Z,88945.00
2024-03-22T05:12:43.361Z,88944.00
2024-03-22T05:13:43.379Z,88945.00
2024-03-22T05:14:43.383Z,88944.00
2024-03-22T05:15:43.369Z,88945.00
2024-03-22T05:16:43.368Z,88944.00
2024-03-22T05:17:43.429Z,88944.00
2024-03-22T05:18:43.377Z,88946.00
2024-03-22T05:19:43.377Z,88947.00
2024-03-22T05:20:43.379Z,88947.00
2024-03-22T05:21:43.382Z,88949.00
2024-03-22T05:22:43.369Z,88948.00
2024-03-22T05:23:43.436Z,88950.00
2024-03-22T05:24:43.364Z,88950.00
2024-03-22T05:25:43.369Z,88951.00
2024-03-22T05:26:43.376Z,88952.00
2024-03-22T05:27:43.377Z,88952.00
2024-03-22T05:28:43.381Z,88952.00
2024-03-22T05:29:43.381Z,88951.00
2024-03-22T05:30:43.372Z,88949.00
2024-03-22T05:31:43.382Z,88948.00
2024-03-22T05:32:43.399Z,88949.00
2024-03-22T05:33:43.403Z,88948.00
2024-03-22T05:34:43.382Z,88948.00
2024-03-22T05:35:43.384Z,88950.00
2024-03-22T05:36:43.394Z,88949.00
2024-03-22T05:37:43.397Z,88947.00
2024-03-22T05:38:43.390Z,88950.00
2024-03-22T05:39:43.398Z,88948.00
2024-03-22T05:40:43.414Z,88950.00
2024-03-22T05:41:43.423Z,88950.00
2024-03-22T05:42:43.413Z,88949.00
2024-03-22T05:43:43.420Z,88947.00
2024-03-22T05:44:43.438Z,88946.00
2024-03-22T05:45:43.412Z,88943.00
2024-03-22T05:46:43.425Z,88943.00
2024-03-22T05:47:43.436Z,88943.00
2024-03-22T05:48:43.432Z,88941.00
2024-03-22T05:49:43.430Z,88942.00
2024-03-22T05:50:43.440Z,88941.00
2024-03-22T05:51:43.477Z,88942.00
2024-03-22T05:52:43.531Z,88943.00
2024-03-22T05:53:43.619Z,88939.00
2024-03-22T05:54:43.640Z,88940.00
2024-03-22T05:55:43.704Z,88941.00
2024-03-22T05:56:43.797Z,88940.00
2024-03-22T05:57:43.828Z,88943.00
2024-03-22T05:58:43.880Z,88942.00
2024-03-22T05:59:43.959Z,88941.00
2024-03-22T06:00:44.044Z,88941.00
2024-03-22T06:01:44.468Z,88939.00
2024-03-22T06:02:44.122Z,88940.00
2024-03-22T06:03:44.243Z,88938.00
2024-03-22T06:04:46.782Z,88936.00
2024-03-22T06:05:44.204Z,88937.00
2024-03-22T06:06:44.198Z,88939.00
2024-03-22T06:07:44.211Z,88938.00
2024-03-22T06:08:44.238Z,88939.00
2024-03-22T06:09:44.266Z,88940.00
2024-03-22T06:10:44.208Z,88940.00
2024-03-22T06:11:44.202Z,88938.00
2024-03-22T06:12:44.205Z,88940.00
2024-03-22T06:13:44.223Z,88940.00
2024-03-22T06:14:44.224Z,88938.00
2024-03-22T06:15:44.211Z,88941.00
2024-03-22T06:16:44.210Z,88939.00
2024-03-22T06:17:44.274Z,88942.00
2024-03-22T06:18:44.244Z,88944.00
2024-03-22T06:19:44.235Z,88942.00
2024-03-22T06:20:44.219Z,88939.00
2024-03-22T06:21:44.231Z,88939.00
2024-03-22T06:22:44.219Z,88942.00
2024-03-22T06:23:44.225Z,88945.00
2024-03-22T06:24:44.227Z,88944.00
2024-03-22T06:25:44.224Z,88942.00
2024-03-22T06:26:46.058Z,88943.00
2024-03-22T06:27:45.746Z,88944.00
2024-03-22T06:28:44.297Z,88938.00
2024-03-22T06:29:44.384Z,88939.00
2024-03-22T06:30:44.404Z,88937.00
2024-03-22T06:31:44.518Z,88935.00
2024-03-22T06:32:44.534Z,88934.00
2024-03-22T06:33:44.574Z,88935.00
2024-03-22T06:34:44.651Z,88933.00
2024-03-22T06:35:44.709Z,88935.00
2024-03-22T06:36:44.794Z,88933.00
2024-03-22T06:37:44.983Z,88934.00
2024-03-22T06:38:44.888Z,88932.00
2024-03-22T06:39:45.476Z,88931.00
2024-03-22T06:40:45.164Z,88930.00
2024-03-22T06:41:50.637Z,88930.00
2024-03-22T06:42:45.133Z,88930.00
2024-03-22T06:43:45.040Z,88930.00
2024-03-22T06:44:45.345Z,88927.00
2024-03-22T06:45:45.044Z,88927.00
2024-03-22T06:46:45.060Z,88925.00
2024-03-22T06:47:45.284Z,88925.00
2024-03-22T06:48:46.125Z,88923.00
2024-03-22T06:49:45.057Z,88923.00
2024-03-22T06:50:45.155Z,88923.00
2024-03-22T06:51:45.895Z,88922.00
2024-03-22T06:52:45.280Z,88920.00
2024-03-22T06:53:45.327Z,88922.00
2024-03-22T06:54:45.343Z,88920.00
2024-03-22T06:55:45.613Z,88921.00
2024-03-22T06:56:45.403Z,88919.00
2024-03-22T06:57:46.075Z,88919.00
2024-03-22T06:58:45.481Z,88917.00
2024-03-22T06:59:45.543Z,88920.00
2024-03-22T07:00:45.532Z,88918.00
2024-03-22T07:01:45.598Z,88917.00
2024-03-22T07:02:45.609Z,88918.00
2024-03-22T07:03:45.632Z,88914.00
2024-03-22T07:04:45.671Z,88914.00
2024-03-22T07:05:45.685Z,88912.00
2024-03-22T07:06:47.576Z,88913.00
2024-03-22T07:07:46.682Z,88912.00
2024-03-22T07:08:45.701Z,88913.00
2024-03-22T07:09:45.677Z,88911.00
2024-03-22T07:10:45.782Z,88910.00
2024-03-22T07:11:45.714Z,88907.00
2024-03-22T07:12:45.709Z,88907.00
2024-03-22T07:13:46.702Z,88908.00
2024-03-22T07:14:45.692Z,88907.00
2024-03-22T07:15:45.948Z,88906.00
2024-03-22T07:16:45.744Z,88906.00
2024-03-22T07:17:45.790Z,88903.00
2024-03-22T07:18:45.775Z,88901.00
2024-03-22T07:19:45.769Z,88900.00
2024-03-22T07:20:45.819Z,88900.00
2024-03-22T07:21:45.799Z,88894.00
2024-03-22T07:22:45.842Z,88893.00
2024-03-22T07:23:57.683Z,88894.00
2024-03-22T07:24:45.857Z,88891.00
2024-03-22T07:25:45.889Z,88892.00
2024-03-22T07:26:45.883Z,88892.00
2024-03-22T07:27:45.839Z,88891.00
2024-03-22T07:28:45.831Z,88889.00
2024-03-22T07:29:45.885Z,88889.00
2024-03-22T07:30:45.876Z,88892.00
2024-03-22T07:31:46.598Z,88891.00
2024-03-22T07:32:45.897Z,88890.00
2024-03-22T07:33:45.919Z,88890.00
2024-03-22T07:34:45.856Z,88885.00
2024-03-22T07:35:45.868Z,88885.00
2024-03-22T07:36:45.916Z,88886.00
2024-03-22T07:37:45.875Z,88881.00
2024-03-22T07:38:45.868Z,88881.00
2024-03-22T07:39:45.920Z,88884.00
2024-03-22T07:40:46.538Z,88881.00
2024-03-22T07:41:46.055Z,88881.00
2024-03-22T07:42:46.062Z,88879.00
2024-03-22T07:43:46.124Z,88877.00
2024-03-22T07:44:46.190Z,88876.00
2024-03-22T07:45:46.265Z,88876.00
2024-03-22T07:46:46.338Z,88875.00
2024-03-22T07:47:46.629Z,88875.00
2024-03-22T07:48:46.477Z,88874.00
2024-03-22T07:49:46.546Z,88872.00
2024-03-22T07:50:46.825Z,88873.00
2024-03-22T07:51:46.747Z,88871.00
2024-03-22T07:52:46.754Z,88871.00
2024-03-22T07:53:46.965Z,88869.00
2024-03-22T07:54:47.189Z,88867.00
2024-03-22T07:55:46.967Z,88866.00
2024-03-22T07:56:47.000Z,88865.00
2024-03-22T07:57:47.105Z,88865.00
2024-03-22T07:58:46.967Z,88863.00
2024-03-22T07:59:46.972Z,88863.00
2024-03-22T08:00:46.961Z,88860.00
2024-03-22T08:01:47.065Z,88860.00
2024-03-22T08:02:46.981Z,88859.00
2024-03-22T08:03:47.002Z,88858.00
2024-03-22T08:04:47.032Z,88858.00
2024-03-22T08:05:47.041Z,88857.00
2024-03-22T08:06:47.029Z,88857.00
2024-03-22T08:07:47.027Z,88854.00
2024-03-22T08:08:47.077Z,88852.00
2024-03-22T08:09:47.238Z,88850.00
2024-03-22T08:10:47.156Z,88848.00
2024-03-22T08:11:47.046Z,88847.00
2024-03-22T08:12:46.984Z,88843.00
2024-03-22T08:13:47.014Z,88842.00
2024-03-22T08:14:47.045Z,88841.00
2024-03-22T08:15:47.020Z,88839.00
2024-03-22T08:16:47.016Z,88837.00
2024-03-22T08:17:47.052Z,88837.00
2024-03-22T08:18:47.116Z,88837.00
2024-03-22T08:19:47.114Z,88835.00
2024-03-22T08:20:47.167Z,88835.00
2024-03-22T08:21:47.561Z,88833.00
2024-03-22T08:22:47.199Z,88833.00
2024-03-22T08:23:47.168Z,88835.00
2024-03-22T08:24:47.797Z,88833.00
2024-03-22T08:25:47.164Z,88831.00
2024-03-22T08:26:47.222Z,88833.00
2024-03-22T08:27:59.782Z,88827.00
2024-03-22T08:28:49.165Z,88827.00
2024-03-22T08:29:48.811Z,88825.00
2024-03-22T08:30:48.320Z,88823.00
2024-03-22T08:31:47.172Z,88824.00
2024-03-22T08:32:47.122Z,88823.00
2024-03-22T08:33:47.089Z,88822.00
2024-03-22T08:34:47.121Z,88821.00
2024-03-22T08:35:47.191Z,88820.00
2024-03-22T08:36:47.134Z,88819.00
2024-03-22T08:37:47.099Z,88819.00
2024-03-22T08:38:47.198Z,88817.00
2024-03-22T08:39:47.452Z,88817.00
2024-03-22T08:40:47.198Z,88816.00
2024-03-22T08:41:47.243Z,88814.00
2024-03-22T08:42:47.181Z,88814.00
2024-03-22T08:43:47.108Z,88810.00
2024-03-22T08:44:47.165Z,88809.00
2024-03-22T08:45:47.098Z,88809.00
2024-03-22T08:46:47.112Z,88808.00
2024-03-22T08:47:47.243Z,88810.00
2024-03-22T08:48:47.107Z,88808.00
2024-03-22T08:49:47.181Z,88810.00
2024-03-22T08:50:47.187Z,88811.00
2024-03-22T08:51:47.704Z,88811.00
2024-03-22T08:52:47.139Z,88810.00
2024-03-22T08:53:47.330Z,88808.00
2024-03-22T08:54:47.142Z,88807.00
2024-03-22T08:55:47.126Z,88806.00
2024-03-22T08:56:47.153Z,88805.00
2024-03-22T08:57:53.998Z,88805.00
2024-03-22T08:58:48.156Z,88801.00
2024-03-22T08:59:47.148Z,88800.00
2024-03-22T09:00:47.151Z,88799.00
2024-03-22T09:01:47.147Z,88799.00
2024-03-22T09:02:47.187Z,88797.00
2024-03-22T09:03:47.185Z,88796.00
2024-03-22T09:04:47.156Z,88797.00
2024-03-22T09:05:56.517Z,88796.00
2024-03-22T09:06:48.170Z,88795.00
2024-03-22T09:07:48.557Z,88796.00
2024-03-22T09:08:47.193Z,88793.00
2024-03-22T09:09:47.170Z,88793.00
2024-03-22T09:10:47.287Z,88792.00
2024-03-22T09:11:47.186Z,88789.00
2024-03-22T09:12:47.208Z,88786.00
2024-03-22T09:13:47.226Z,88785.00
2024-03-22T09:14:47.360Z,88782.00
2024-03-22T09:15:47.307Z,88780.00
2024-03-22T09:16:47.343Z,88778.00
2024-03-22T09:17:47.433Z,88777.00
2024-03-22T09:18:47.423Z,88775.00
2024-03-22T09:19:47.442Z,88774.00
2024-03-22T09:20:47.507Z,88772.00
2024-03-22T09:21:47.487Z,88771.00
2024-03-22T09:22:47.549Z,88768.00
2024-03-22T09:23:47.497Z,88767.00
2024-03-22T09:24:47.526Z,88765.00
2024-03-22T09:25:48.820Z,88763.00
2024-03-22T09:26:47.547Z,88763.00
2024-03-22T09:27:47.585Z,88765.00
2024-03-22T09:28:47.684Z,88764.00
2024-03-22T09:29:47.743Z,88763.00
2024-03-22T09:30:56.554Z,88762.00
2024-03-22T09:31:48.676Z,88757.00
2024-03-22T09:32:47.658Z,88760.00
2024-03-22T09:33:48.584Z,88758.00
2024-03-22T09:34:47.617Z,88758.00
2024-03-22T09:35:48.203Z,88756.00
2024-03-22T09:36:47.656Z,88754.00
2024-03-22T09:37:47.615Z,88753.00
2024-03-22T09:38:47.595Z,88749.00
2024-03-22T09:39:47.653Z,88747.00
2024-03-22T09:40:47.624Z,88742.00
2024-03-22T09:41:50.460Z,88746.00
2024-03-22T09:42:47.667Z,88746.00
2024-03-22T09:43:47.650Z,88747.00
2024-03-22T09:44:47.648Z,88748.00
2024-03-22T09:45:47.627Z,88747.00
2024-03-22T09:46:47.700Z,88745.00
2024-03-22T09:47:47.643Z,88743.00
2024-03-22T09:48:48.567Z,88742.00
2024-03-22T09:49:47.639Z,88743.00
2024-03-22T09:50:47.651Z,88741.00
2024-03-22T09:51:47.630Z,88738.00
2024-03-22T09:52:47.701Z,88736.00
2024-03-22T09:53:48.659Z,88735.00
2024-03-22T09:54:47.844Z,88733.00
2024-03-22T09:55:48.011Z,88732.00
2024-03-22T09:56:47.946Z,88729.00
2024-03-22T09:57:48.088Z,88729.00
2024-03-22T09:58:48.134Z,88729.00
2024-03-22T09:59:48.119Z,88729.00
2024-03-22T10:00:48.110Z,88727.00
2024-03-22T10:01:48.234Z,88727.00
2024-03-22T10:02:48.202Z,88726.00
2024-03-22T10:03:48.359Z,88728.00
2024-03-22T10:04:48.235Z,88725.00
2024-03-22T10:05:48.223Z,88723.00
2024-03-22T10:06:48.297Z,88722.00
2024-03-22T10:07:48.255Z,88722.00
2024-03-22T10:08:48.239Z,88721.00
2024-03-22T10:09:48.254Z,88721.00
2024-03-22T10:10:48.373Z,88720.00
2024-03-22T10:11:48.281Z,88718.00
2024-03-22T10:12:48.230Z,88718.00
2024-03-22T10:13:48.356Z,88718.00
2024-03-22T10:14:48.237Z,88715.00
2024-03-22T10:15:48.235Z,88715.00
2024-03-22T10:16:49.078Z,88713.00
2024-03-22T10:17:48.309Z,88714.00
2024-03-22T10:18:48.394Z,88712.00
2024-03-22T10:19:48.261Z,88710.00
2024-03-22T10:20:48.298Z,88709.00
2024-03-22T10:21:49.264Z,88709.00
2024-03-22T10:22:48.255Z,88709.00
2024-03-22T10:23:48.235Z,88708.00
2024-03-22T10:24:48.244Z,88707.00
2024-03-22T10:25:48.295Z,88709.00
2024-03-22T10:26:48.410Z,88708.00
2024-03-22T10:27:48.383Z,88708.00
2024-03-22T10:28:48.327Z,88705.00
2024-03-22T10:29:48.399Z,88703.00
2024-03-22T10:30:48.453Z,88703.00
2024-03-22T10:31:48.573Z,88701.00
2024-03-22T10:32:48.442Z,88703.00
2024-03-22T10:33:48.475Z,88701.00
2024-03-22T10:34:48.484Z,88699.00
2024-03-22T10:35:48.453Z,88695.00
2024-03-22T10:36:48.483Z,88694.00
2024-03-22T10:37:51.946Z,88691.00
2024-03-22T10:38:48.464Z,88691.00
2024-03-22T10:39:48.524Z,88688.00
2024-03-22T10:40:48.463Z,88690.00
2024-03-22T10:41:48.532Z,88687.00
2024-03-22T10:42:48.499Z,88685.00
2024-03-22T10:43:48.466Z,88683.00
2024-03-22T10:44:48.538Z,88682.00
2024-03-22T10:45:48.469Z,88682.00
2024-03-22T10:46:48.492Z,88679.00
2024-03-22T10:47:48.565Z,88678.00
2024-03-22T10:48:48.523Z,88675.00
2024-03-22T10:49:51.054Z,88677.00
2024-03-22T10:50:48.480Z,88674.00
2024-03-22T10:51:48.509Z,88675.00
2024-03-22T10:52:48.460Z,88671.00
2024-03-22T10:53:48.481Z,88671.00
2024-03-22T10:54:48.554Z,88668.00
2024-03-22T10:55:48.517Z,88665.00
2024-03-22T10:56:48.500Z,88665.00
2024-03-22T10:57:48.609Z,88661.00
2024-03-22T10:58:48.582Z,88659.00
2024-03-22T10:59:48.502Z,88657.00
2024-03-22T11:00:48.521Z,88658.00
2024-03-22T11:01:49.123Z,88658.00
2024-03-22T11:02:48.494Z,88658.00
2024-03-22T11:03:48.546Z,88656.00
2024-03-22T11:04:48.507Z,88656.00
2024-03-22T11:05:48.520Z,88653.00
2024-03-22T11:06:48.499Z,88653.00
2024-03-22T11:07:48.505Z,88648.00
2024-03-22T11:08:48.500Z,88648.00
2024-03-22T11:09:49.086Z,88643.00
2024-03-22T11:10:48.496Z,88640.00
2024-03-22T11:11:48.535Z,88639.00
2024-03-22T11:12:48.546Z,88637.00
2024-03-22T11:13:48.551Z,88637.00
2024-03-22T11:14:50.336Z,88636.00
2024-03-22T11:15:48.526Z,88637.00
2024-03-22T11:16:48.617Z,88634.00
2024-03-22T11:17:48.520Z,88632.00
2024-03-22T11:18:48.515Z,88630.00
2024-03-22T11:19:48.573Z,88629.00
2024-03-22T11:20:48.534Z,88629.00
2024-03-22T11:21:48.574Z,88629.00
2024-03-22T11:22:48.538Z,88630.00
2024-03-22T11:23:48.555Z,88628.00
2024-03-22T11:24:49.141Z,88626.00
2024-03-22T11:25:48.791Z,88625.00
2024-03-22T11:26:48.658Z,88621.00
2024-03-22T11:27:48.620Z,88620.00
2024-03-22T11:28:48.645Z,88618.00
2024-03-22T11:29:48.643Z,88615.00
2024-03-22T11:30:48.683Z,88615.00
2024-03-22T11:31:48.690Z,88611.00
2024-03-22T11:32:48.713Z,88610.00
2024-03-22T11:33:48.723Z,88608.00
2024-03-22T11:34:48.956Z,88608.00
2024-03-22T11:35:48.766Z,88608.00
2024-03-22T11:36:48.796Z,88605.00
2024-03-22T11:37:49.622Z,88602.00
2024-03-22T11:38:48.870Z,88599.00
2024-03-22T11:39:48.897Z,88598.00
2024-03-22T11:40:48.872Z,88597.00
2024-03-22T11:41:48.881Z,88594.00
2024-03-22T11:42:48.909Z,88592.00
2024-03-22T11:43:49.598Z,88590.00
2024-03-22T11:44:49.052Z,88586.00